Time;durP1;ratioP1;P1;durP2;ratioP2;P2;SDS_P1;SDS_P2;PMS_P1;PMS_P2;Temp;Humidity;BMP_temperature;BMP_pressure;BME280_temperature;BME280_humidity;BME280_pressure;Samples;Min_cycle;Max_cycle;Signal;HPM_P1;HPM_P2
2023/09/15 00:00:44;;;;;;;11.50;4.90;;;13.90;99.90;;;;;;4972533;28;20384;-74
2023/09/15 00:03:11;;;;;;;14.82;5.20;;;13.90;99.90;;;;;;4972955;28;20189;-70
2023/09/15 00:05:37;;;;;;;11.23;4.43;;;13.90;99.90;;;;;;4972732;28;20202;-70
2023/09/15 00:08:05;;;;;;;10.40;4.38;;;13.90;99.90;;;;;;4973016;28;20237;-71
2023/09/15 00:10:33;;;;;;;9.00;4.70;;;13.80;99.90;;;;;;4972692;28;20182;-71
2023/09/15 00:12:59;;;;;;;10.82;4.55;;;13.80;99.90;;;;;;4968916;28;20182;-74
2023/09/15 00:15:26;;;;;;;12.48;6.03;;;13.80;99.90;;;;;;4943108;28;20200;-71
2023/09/15 00:17:52;;;;;;;14.65;4.60;;;13.80;99.90;;;;;;4954825;28;20236;-70
2023/09/15 00:20:18;;;;;;;15.10;4.88;;;13.70;99.90;;;;;;4972523;28;20333;-71
2023/09/15 00:22:55;;;;;;;11.60;4.55;;;13.70;99.90;;;;;;4971495;28;20185;-71
2023/09/15 00:25:27;;;;;;;12.23;4.40;;;13.70;99.90;;;;;;4970123;28;20189;-71
2023/09/15 00:27:55;;;;;;;13.10;4.95;;;13.60;99.90;;;;;;4972802;28;20210;-71
2023/09/15 00:30:22;;;;;;;12.98;4.88;;;13.60;99.90;;;;;;4972682;28;20289;-74
2023/09/15 00:32:50;;;;;;;13.25;4.65;;;13.60;99.90;;;;;;4971997;28;20177;-70
2023/09/15 00:35:18;;;;;;;10.15;4.80;;;13.60;99.90;;;;;;4969373;28;20189;-71
2023/09/15 00:37:46;;;;;;;11.77;4.38;;;13.60;99.90;;;;;;4972678;28;20182;-71
2023/09/15 00:40:19;;;;;;;8.90;4.60;;;13.60;99.90;;;;;;4955269;28;20190;-71
2023/09/15 00:42:47;;;;;;;11.30;4.75;;;13.60;99.90;;;;;;4971851;28;20177;-72
2023/09/15 00:45:15;;;;;;;14.07;4.85;;;13.60;99.90;;;;;;4950425;28;20890;-71
2023/09/15 00:47:46;;;;;;;10.13;4.70;;;13.50;99.90;;;;;;4985450;28;20698;-71
2023/09/15 00:50:17;;;;;;;12.38;5.03;;;13.50;99.90;;;;;;4972604;28;20237;-72
2023/09/15 00:52:49;;;;;;;13.52;4.40;;;13.50;99.90;;;;;;4947741;29;20190;-71
2023/09/15 00:55:16;;;;;;;9.63;4.80;;;13.50;99.90;;;;;;4965373;28;20184;-72
2023/09/15 00:57:42;;;;;;;14.75;4.28;;;13.50;99.90;;;;;;4955761;28;20190;-71
2023/09/15 01:00:12;;;;;;;8.77;4.30;;;13.50;99.90;;;;;;4955249;28;20632;-71
2023/09/15 01:02:47;;;;;;;9.40;4.60;;;13.50;99.90;;;;;;4972527;28;20302;-71
2023/09/15 01:05:19;;;;;;;9.43;4.20;;;13.50;99.90;;;;;;4970467;28;20189;-70
2023/09/15 01:07:47;;;;;;;9.75;4.13;;;13.40;99.90;;;;;;4965735;28;20214;-72
2023/09/15 01:10:14;;;;;;;9.07;4.25;;;13.40;99.90;;;;;;4964141;28;20186;-72
2023/09/15 01:12:43;;;;;;;8.80;4.05;;;13.40;99.90;;;;;;4987452;28;20177;-71
2023/09/15 01:15:10;;;;;;;15.02;4.22;;;13.40;99.90;;;;;;4953630;28;20197;-71
2023/09/15 01:17:49;;;;;;;8.98;4.00;;;13.40;99.90;;;;;;4951029;28;20237;-70
2023/09/15 01:20:52;;;;;;;11.60;4.43;;;13.40;99.90;;;;;;4972155;28;20208;-73
2023/09/15 01:23:33;;;;;;;17.13;4.55;;;13.30;99.90;;;;;;4975192;28;20178;-70
2023/09/15 01:26:18;;;;;;;8.48;4.13;;;13.30;99.90;;;;;;4954454;28;20248;-71
2023/09/15 01:29:23;;;;;;;11.32;4.20;;;13.30;99.90;;;;;;4956562;28;20242;-71
2023/09/15 01:31:49;;;;;;;11.65;4.30;;;13.30;99.90;;;;;;4964268;28;20265;-71
2023/09/15 01:34:16;;;;;;;11.13;4.35;;;13.30;99.90;;;;;;4974866;28;20642;-69
2023/09/15 01:36:44;;;;;;;12.30;3.90;;;13.30;99.90;;;;;;4942916;28;20198;-71
2023/09/15 01:39:10;;;;;;;9.68;4.28;;;13.30;99.90;;;;;;4958359;28;20333;-71
2023/09/15 01:41:36;;;;;;;9.77;4.22;;;13.20;99.90;;;;;;4957840;28;20216;-68
2023/09/15 01:44:03;;;;;;;7.95;4.53;;;13.20;99.90;;;;;;4974108;28;20182;-72
2023/09/15 01:46:28;;;;;;;8.50;4.30;;;13.20;99.90;;;;;;4970012;28;20213;-70
2023/09/15 01:48:59;;;;;;;11.30;4.28;;;13.20;99.90;;;;;;4956954;28;20214;-70
2023/09/15 01:51:26;;;;;;;10.30;4.32;;;13.20;99.90;;;;;;4975345;28;20312;-70
2023/09/15 01:53:52;;;;;;;9.35;4.40;;;13.20;99.90;;;;;;4957688;28;20745;-74
2023/09/15 01:56:19;;;;;;;8.75;4.40;;;13.10;99.90;;;;;;4937957;28;21119;-70
2023/09/15 01:58:45;;;;;;;8.45;4.20;;;13.10;99.90;;;;;;4942182;28;20250;-72
2023/09/15 02:01:11;;;;;;;11.18;4.72;;;13.10;99.90;;;;;;4958148;28;20579;-71
2023/09/15 02:03:38;;;;;;;11.82;4.50;;;13.10;99.90;;;;;;4957890;28;20190;-70
2023/09/15 02:06:04;;;;;;;11.00;4.20;;;13.10;99.90;;;;;;4973210;28;20190;-71
2023/09/15 02:08:33;;;;;;;13.55;4.32;;;13.00;99.90;;;;;;4981797;28;20218;-71
2023/09/15 02:10:59;;;;;;;10.10;4.38;;;13.00;99.90;;;;;;4975326;28;20260;-70
2023/09/15 02:13:25;;;;;;;12.15;4.88;;;13.00;99.90;;;;;;4958102;28;20550;-74
2023/09/15 02:15:54;;;;;;;10.07;4.10;;;13.00;99.90;;;;;;4957299;28;20230;-71
2023/09/15 02:18:22;;;;;;;8.20;4.10;;;12.90;99.90;;;;;;4953564;28;20178;-71
2023/09/15 02:20:57;;;;;;;8.57;4.43;;;13.00;99.90;;;;;;4974972;28;20193;-71
2023/09/15 02:23:23;;;;;;;9.00;4.03;;;12.90;99.90;;;;;;4975015;28;20324;-72
2023/09/15 02:25:50;;;;;;;9.48;4.35;;;12.90;99.90;;;;;;4957698;28;20182;-69
2023/09/15 02:28:16;;;;;;;11.73;4.90;;;12.90;99.90;;;;;;4969687;28;20757;-72
2023/09/15 02:30:42;;;;;;;10.85;4.47;;;12.90;99.90;;;;;;4974272;28;20190;-71
2023/09/15 02:33:09;;;;;;;10.30;4.50;;;12.90;99.90;;;;;;4972985;28;20186;-70
2023/09/15 02:35:35;;;;;;;8.73;4.07;;;12.90;99.90;;;;;;4957436;28;20193;-70
2023/09/15 02:38:01;;;;;;;9.73;4.78;;;12.90;99.90;;;;;;4937320;29;20664;-72
2023/09/15 02:40:28;;;;;;;11.18;4.50;;;12.90;99.90;;;;;;4957726;28;20190;-71
2023/09/15 02:42:54;;;;;;;9.15;4.63;;;12.90;99.90;;;;;;4956776;28;20260;-72
2023/09/15 02:45:20;;;;;;;10.40;4.70;;;12.90;99.90;;;;;;4974496;28;20708;-71
2023/09/15 02:47:47;;;;;;;12.85;5.00;;;12.90;99.90;;;;;;4954581;28;20225;-70
2023/09/15 02:50:13;;;;;;;10.60;5.07;;;12.80;99.90;;;;;;4952095;28;20182;-73
2023/09/15 02:52:39;;;;;;;11.60;4.75;;;12.80;99.90;;;;;;4954573;28;20185;-71
2023/09/15 02:55:06;;;;;;;10.57;4.93;;;12.80;99.90;;;;;;4974279;28;20240;-72
2023/09/15 02:57:32;;;;;;;10.88;4.60;;;12.80;99.90;;;;;;4955670;28;20228;-75
2023/09/15 03:00:01;;;;;;;13.73;5.40;;;12.80;99.90;;;;;;4965819;28;20224;-69
2023/09/15 03:02:28;;;;;;;9.48;5.18;;;12.80;99.90;;;;;;4940754;28;20217;-69
2023/09/15 03:04:54;;;;;;;11.82;5.70;;;12.70;99.90;;;;;;4953474;28;20201;-75
2023/09/15 03:07:20;;;;;;;9.18;5.18;;;12.70;99.90;;;;;;4956279;28;20186;-72
2023/09/15 03:09:46;;;;;;;11.00;5.10;;;12.70;99.90;;;;;;4973805;28;20241;-72
2023/09/15 03:12:12;;;;;;;6.57;4.65;;;12.70;99.90;;;;;;4955883;28;20561;-70
2023/09/15 03:14:39;;;;;;;11.63;4.78;;;12.70;99.90;;;;;;4952285;28;20292;-73
2023/09/15 03:17:06;;;;;;;16.83;4.93;;;12.70;99.90;;;;;;4955709;28;20681;-71
2023/09/15 03:19:34;;;;;;;9.45;5.05;;;12.60;99.90;;;;;;4909693;28;20643;-71
2023/09/15 03:22:00;;;;;;;7.65;4.28;;;12.60;99.90;;;;;;4956549;28;20190;-72
2023/09/15 03:24:28;;;;;;;14.30;4.75;;;12.60;99.90;;;;;;4937547;28;20202;-71
2023/09/15 03:26:55;;;;;;;9.32;5.05;;;12.60;99.90;;;;;;4954750;28;20709;-70
2023/09/15 03:29:21;;;;;;;10.13;4.95;;;12.60;99.90;;;;;;4956414;28;20213;-71
2023/09/15 03:31:47;;;;;;;13.43;5.30;;;12.60;99.90;;;;;;4940558;28;20217;-71
2023/09/15 03:34:13;;;;;;;9.35;5.03;;;12.60;99.90;;;;;;4955128;28;20681;-71
2023/09/15 03:36:39;;;;;;;13.50;5.50;;;12.60;99.90;;;;;;4973735;28;20662;-70
2023/09/15 03:39:05;;;;;;;10.75;5.20;;;12.50;99.90;;;;;;4973688;28;20186;-70
2023/09/15 03:41:31;;;;;;;15.80;5.65;;;12.60;99.90;;;;;;4956300;28;20245;-72
2023/09/15 03:43:59;;;;;;;10.80;5.20;;;12.60;99.90;;;;;;4955658;28;20190;-71
2023/09/15 03:46:25;;;;;;;10.23;5.05;;;12.50;99.90;;;;;;4952168;28;20186;-72
2023/09/15 03:48:51;;;;;;;9.55;5.00;;;12.50;99.90;;;;;;4955761;28;20217;-71
2023/09/15 03:51:17;;;;;;;12.25;5.30;;;12.50;99.90;;;;;;4955658;28;20230;-70
2023/09/15 03:53:43;;;;;;;8.50;5.13;;;12.50;99.90;;;;;;4972716;28;20190;-70
2023/09/15 03:56:10;;;;;;;9.27;5.03;;;12.50;99.90;;;;;;4955329;28;20190;-70
2023/09/15 03:58:35;;;;;;;10.85;5.75;;;12.50;99.90;;;;;;4955883;28;20196;-70
2023/09/15 04:01:03;;;;;;;15.93;5.90;;;12.40;99.90;;;;;;4955500;28;20190;-70
2023/09/15 04:03:29;;;;;;;13.68;5.70;;;12.40;99.90;;;;;;4955396;28;20262;-70
2023/09/15 04:05:54;;;;;;;11.48;5.40;;;12.40;99.90;;;;;;4938131;28;20635;-71
2023/09/15 04:08:20;;;;;;;9.25;5.38;;;12.40;99.90;;;;;;4950120;28;20222;-69
2023/09/15 04:10:46;;;;;;;14.88;5.78;;;12.40;99.90;;;;;;4973033;28;20625;-69
2023/09/15 04:13:12;;;;;;;10.93;5.50;;;12.40;99.90;;;;;;4972633;28;20181;-70
2023/09/15 04:15:39;;;;;;;9.90;5.60;;;12.40;99.90;;;;;;4972401;28;20264;-72
2023/09/15 04:18:08;;;;;;;12.52;5.90;;;12.40;99.90;;;;;;4951583;28;20190;-71
2023/09/15 04:20:39;;;;;;;10.68;5.18;;;12.40;99.90;;;;;;4955487;28;20284;-70
2023/09/15 04:23:05;;;;;;;11.88;5.70;;;12.40;99.90;;;;;;4972224;28;20197;-71
2023/09/15 04:25:31;;;;;;;19.67;6.50;;;12.40;99.90;;;;;;4972645;28;20178;-72
2023/09/15 04:27:57;;;;;;;15.82;6.40;;;12.30;99.90;;;;;;4967750;28;20224;-72
2023/09/15 04:30:23;;;;;;;13.88;6.57;;;12.30;99.90;;;;;;4954846;28;20196;-74
2023/09/15 04:32:53;;;;;;;11.48;6.53;;;12.30;99.90;;;;;;4955224;28;20190;-71
2023/09/15 04:35:19;;;;;;;9.75;6.72;;;12.30;99.90;;;;;;4924153;28;20549;-72
2023/09/15 04:37:45;;;;;;;16.17;6.30;;;12.30;99.90;;;;;;4971783;28;20187;-70
2023/09/15 04:40:12;;;;;;;13.02;6.43;;;12.30;99.90;;;;;;4955039;28;20221;-72
2023/09/15 04:42:40;;;;;;;10.00;6.28;;;12.20;99.90;;;;;;4938764;28;20612;-70
2023/09/15 04:45:07;;;;;;;12.13;7.05;;;12.20;99.90;;;;;;4955125;28;20213;-70
2023/09/15 04:47:35;;;;;;;13.07;6.78;;;12.20;99.90;;;;;;4954042;28;20596;-71
2023/09/15 04:50:08;;;;;;;13.35;7.13;;;12.20;99.90;;;;;;4984666;28;20192;-71
2023/09/15 04:52:34;;;;;;;18.10;7.22;;;12.20;99.90;;;;;;4970720;28;20629;-71
2023/09/15 04:55:00;;;;;;;9.55;6.50;;;12.20;99.90;;;;;;4972572;28;20226;-72
2023/09/15 04:57:26;;;;;;;15.93;7.28;;;12.20;99.90;;;;;;4958486;28;20573;-70
2023/09/15 04:59:53;;;;;;;15.57;7.10;;;12.20;99.90;;;;;;4938107;28;20590;-70
2023/09/15 05:02:23;;;;;;;19.35;7.47;;;12.20;99.90;;;;;;4942938;28;20601;-72
2023/09/15 05:04:52;;;;;;;11.40;6.47;;;12.20;99.90;;;;;;4943677;28;20252;-75
2023/09/15 05:07:20;;;;;;;19.50;7.57;;;12.20;99.90;;;;;;4959145;28;20278;-76
2023/09/15 05:09:46;;;;;;;14.35;8.75;;;12.10;99.90;;;;;;4955558;28;20308;-75
2023/09/15 05:12:15;;;;;;;18.27;8.27;;;12.20;99.90;;;;;;4954018;28;20194;-75
2023/09/15 05:14:41;;;;;;;11.43;7.30;;;12.20;99.90;;;;;;4952280;28;20313;-74
2023/09/15 05:17:07;;;;;;;17.08;9.13;;;12.20;99.90;;;;;;4941553;28;20706;-75
2023/09/15 05:19:33;;;;;;;17.90;9.05;;;12.20;99.90;;;;;;4957721;28;20221;-75
2023/09/15 05:21:58;;;;;;;18.05;8.75;;;12.20;99.90;;;;;;4942443;28;20209;-74
2023/09/15 05:24:26;;;;;;;19.50;8.85;;;12.20;99.90;;;;;;4956231;28;20186;-74
2023/09/15 05:26:52;;;;;;;17.30;9.90;;;12.20;99.90;;;;;;4946265;28;20194;-75
2023/09/15 05:29:19;;;;;;;15.73;8.60;;;12.10;99.90;;;;;;4958583;28;20216;-71
2023/09/15 05:31:44;;;;;;;14.75;8.02;;;12.20;99.90;;;;;;4958160;28;20248;-73
2023/09/15 05:34:10;;;;;;;13.25;8.77;;;12.20;99.90;;;;;;4957820;28;20229;-72
2023/09/15 05:36:37;;;;;;;13.25;8.38;;;12.20;99.90;;;;;;4972417;28;20623;-71
2023/09/15 05:39:03;;;;;;;13.70;8.20;;;12.20;99.90;;;;;;4939972;28;20186;-76
2023/09/15 05:41:30;;;;;;;18.38;8.52;;;12.20;99.90;;;;;;4952838;28;20208;-75
2023/09/15 05:43:55;;;;;;;14.70;8.70;;;12.20;99.90;;;;;;4940847;28;20285;-78
2023/09/15 05:46:21;;;;;;;19.48;9.18;;;12.20;99.90;;;;;;4973859;28;20298;-76
2023/09/15 05:48:48;;;;;;;21.20;9.32;;;12.20;99.90;;;;;;4933864;29;20305;-74
2023/09/15 05:51:14;;;;;;;15.50;8.70;;;12.20;99.90;;;;;;4969136;28;20756;-71
2023/09/15 05:53:39;;;;;;;22.23;8.77;;;12.20;99.90;;;;;;4969437;28;20371;-72
2023/09/15 05:56:05;;;;;;;15.93;7.90;;;12.30;99.90;;;;;;4957983;28;20194;-68
2023/09/15 05:58:31;;;;;;;16.42;8.57;;;12.30;99.90;;;;;;4974160;28;20189;-67
2023/09/15 06:00:57;;;;;;;16.73;8.20;;;12.30;99.90;;;;;;4957632;28;20276;-71
2023/09/15 06:03:25;;;;;;;12.13;8.82;;;12.40;99.90;;;;;;4974633;28;20228;-72
2023/09/15 06:05:51;;;;;;;15.23;8.57;;;12.40;99.90;;;;;;4974864;28;20217;-72
2023/09/15 06:08:21;;;;;;;16.17;8.88;;;12.40;99.90;;;;;;4973857;28;20697;-73
2023/09/15 06:10:47;;;;;;;11.70;8.88;;;12.50;99.90;;;;;;4968631;28;20205;-75
2023/09/15 06:13:14;;;;;;;16.15;8.48;;;12.50;99.90;;;;;;4975033;28;20182;-75
2023/09/15 06:15:40;;;;;;;17.67;9.18;;;12.60;99.90;;;;;;4970853;28;20318;-76
2023/09/15 06:18:06;;;;;;;16.33;8.75;;;12.60;99.90;;;;;;4972622;28;20593;-73
2023/09/15 06:20:33;;;;;;;18.23;8.73;;;12.60;99.90;;;;;;4956970;28;20186;-74
2023/09/15 06:23:03;;;;;;;15.68;8.68;;;12.70;99.90;;;;;;4974867;28;20185;-72
2023/09/15 06:25:30;;;;;;;23.23;9.38;;;12.70;99.90;;;;;;4973540;28;20742;-72
2023/09/15 06:27:57;;;;;;;17.80;8.70;;;12.80;99.90;;;;;;4974648;28;20321;-73
2023/09/15 06:30:23;;;;;;;16.17;9.45;;;12.80;99.90;;;;;;4970875;28;20192;-72
2023/09/15 06:32:49;;;;;;;15.88;9.02;;;12.90;99.90;;;;;;4974082;28;20182;-70
2023/09/15 06:35:15;;;;;;;12.80;9.27;;;13.00;99.90;;;;;;4956602;28;20193;-69
2023/09/15 06:37:41;;;;;;;18.25;9.50;;;13.00;99.90;;;;;;4957208;28;20240;-68
2023/09/15 06:40:08;;;;;;;16.42;9.13;;;13.10;99.90;;;;;;4970779;28;20209;-69
2023/09/15 06:42:34;;;;;;;23.83;9.73;;;13.10;99.90;;;;;;4970878;28;20205;-71
2023/09/15 06:45:02;;;;;;;15.95;9.05;;;13.20;99.90;;;;;;4981378;28;20199;-72
2023/09/15 06:47:28;;;;;;;19.77;8.35;;;13.20;99.90;;;;;;4971004;28;20181;-71
2023/09/15 06:49:54;;;;;;;19.35;8.88;;;13.30;99.90;;;;;;4974177;28;20560;-69
2023/09/15 06:52:20;;;;;;;17.90;9.02;;;13.30;99.90;;;;;;4974273;28;20633;-70
2023/09/15 06:54:46;;;;;;;15.95;9.10;;;13.40;99.90;;;;;;4956338;28;20623;-70
2023/09/15 06:57:12;;;;;;;19.98;8.48;;;13.50;99.90;;;;;;4970902;28;20182;-70
2023/09/15 06:59:38;;;;;;;16.33;8.65;;;13.50;99.90;;;;;;4969935;28;20217;-71
2023/09/15 07:02:04;;;;;;;18.55;9.98;;;13.60;99.90;;;;;;4974263;28;20178;-69
2023/09/15 07:04:30;;;;;;;17.52;8.82;;;13.70;99.90;;;;;;4973657;28;20561;-72
2023/09/15 07:06:56;;;;;;;16.45;8.63;;;13.70;99.90;;;;;;4973910;28;20189;-75
2023/09/15 07:09:22;;;;;;;22.30;9.15;;;13.80;99.90;;;;;;4935265;28;20233;-75
2023/09/15 07:11:48;;;;;;;18.60;9.30;;;13.90;99.90;;;;;;4971254;28;20673;-74
2023/09/15 07:14:14;;;;;;;17.23;9.32;;;14.00;99.90;;;;;;4973854;28;20209;-68
2023/09/15 07:16:41;;;;;;;24.27;9.55;;;14.00;99.90;;;;;;4971312;28;20178;-73
2023/09/15 07:19:07;;;;;;;21.85;9.25;;;14.10;99.90;;;;;;4948751;28;20201;-79
2023/09/15 07:21:33;;;;;;;23.00;8.93;;;14.20;99.90;;;;;;4972669;28;20194;-75
2023/09/15 07:23:59;;;;;;;22.92;8.80;;;14.20;99.90;;;;;;4973886;28;20650;-71
2023/09/15 07:26:26;;;;;;;18.83;9.35;;;14.30;99.90;;;;;;4972018;28;20410;-72
2023/09/15 07:28:55;;;;;;;20.00;9.13;;;14.40;99.90;;;;;;4969186;28;20218;-71
2023/09/15 07:31:21;;;;;;;25.13;11.77;;;14.50;99.90;;;;;;4972852;28;20196;-72
2023/09/15 07:33:47;;;;;;;24.02;12.48;;;14.50;99.90;;;;;;4973098;28;20186;-72
2023/09/15 07:36:14;;;;;;;21.30;14.50;;;14.60;99.90;;;;;;4976194;28;20193;-72
2023/09/15 07:38:40;;;;;;;28.33;15.45;;;14.60;99.90;;;;;;4956020;28;20178;-72
2023/09/15 07:41:06;;;;;;;27.70;11.48;;;14.70;99.90;;;;;;4966772;28;20186;-72
2023/09/15 07:43:32;;;;;;;22.75;9.95;;;14.80;99.90;;;;;;4972828;28;20332;-71
2023/09/15 07:45:58;;;;;;;15.32;8.73;;;14.90;99.90;;;;;;4963051;28;20704;-72
2023/09/15 07:48:24;;;;;;;22.55;9.00;;;15.00;99.90;;;;;;4972266;28;20682;-71
2023/09/15 07:50:53;;;;;;;21.92;9.07;;;15.00;99.90;;;;;;4972217;28;20408;-72
2023/09/15 07:53:21;;;;;;;18.98;8.80;;;15.10;99.90;;;;;;4972751;28;20253;-72
2023/09/15 07:55:47;;;;;;;15.95;8.13;;;15.20;99.90;;;;;;4939566;28;20204;-71
2023/09/15 07:58:13;;;;;;;15.90;8.25;;;15.30;99.90;;;;;;4972857;28;20186;-70
2023/09/15 08:00:39;;;;;;;14.50;8.25;;;15.40;99.90;;;;;;4972337;28;20265;-69
2023/09/15 08:03:05;;;;;;;17.50;7.63;;;15.40;99.90;;;;;;4973165;28;20545;-69
2023/09/15 08:05:31;;;;;;;18.52;8.05;;;15.50;99.90;;;;;;4972756;28;20182;-71
2023/09/15 08:07:56;;;;;;;20.65;8.90;;;15.60;99.90;;;;;;4968931;28;20210;-70
2023/09/15 08:10:23;;;;;;;14.05;7.50;;;15.70;99.90;;;;;;4952965;28;20706;-70
2023/09/15 08:12:52;;;;;;;17.50;7.60;;;15.80;99.90;;;;;;4971423;28;20272;-70
2023/09/15 08:15:22;;;;;;;18.33;7.65;;;15.90;99.90;;;;;;4972393;28;20198;-70
2023/09/15 08:17:49;;;;;;;13.63;7.78;;;15.90;99.90;;;;;;4963744;28;20691;-69
2023/09/15 08:20:15;;;;;;;24.02;7.85;;;16.00;99.90;;;;;;4971827;28;20188;-71
2023/09/15 08:22:42;;;;;;;19.65;7.60;;;16.20;99.90;;;;;;4970496;28;20196;-70
2023/09/15 08:25:10;;;;;;;13.40;7.07;;;16.20;99.90;;;;;;4969332;28;20192;-72
2023/09/15 08:27:37;;;;;;;18.05;8.15;;;16.30;99.90;;;;;;4969268;28;20182;-71
2023/09/15 08:30:04;;;;;;;11.88;6.50;;;16.40;99.90;;;;;;4972440;28;20231;-71
2023/09/15 08:32:31;;;;;;;10.85;6.10;;;16.40;99.90;;;;;;4971329;28;20185;-70
2023/09/15 08:34:58;;;;;;;11.80;5.72;;;16.50;99.90;;;;;;4972211;28;20198;-70
2023/09/15 08:37:24;;;;;;;12.68;6.47;;;16.60;99.90;;;;;;4954231;28;20186;-69
2023/09/15 08:39:50;;;;;;;15.55;6.38;;;16.70;99.90;;;;;;4934590;28;20673;-66
2023/09/15 08:42:28;;;;;;;17.38;6.10;;;16.80;99.90;;;;;;4969086;28;20284;-72
2023/09/15 08:44:56;;;;;;;18.23;5.80;;;16.80;99.90;;;;;;4949544;28;20642;-69
2023/09/15 08:47:25;;;;;;;13.40;5.40;;;16.90;99.90;;;;;;4969617;28;20186;-66
2023/09/15 08:49:54;;;;;;;13.98;4.80;;;17.00;99.90;;;;;;4953628;28;20674;-68
2023/09/15 08:52:20;;;;;;;12.68;5.20;;;17.10;99.90;;;;;;4968060;28;20234;-71
2023/09/15 08:54:47;;;;;;;10.32;4.90;;;17.10;99.90;;;;;;4971485;28;20190;-70
2023/09/15 08:57:14;;;;;;;11.73;5.25;;;17.20;99.90;;;;;;4972232;28;20194;-71
2023/09/15 08:59:41;;;;;;;12.27;5.10;;;17.30;99.90;;;;;;4972454;28;20186;-70
2023/09/15 09:02:11;;;;;;;8.65;4.78;;;17.40;99.90;;;;;;4967144;28;20224;-73
2023/09/15 09:04:38;;;;;;;12.68;4.40;;;17.40;99.90;;;;;;4968160;28;20648;-70
2023/09/15 09:07:05;;;;;;;10.27;4.88;;;17.40;99.90;;;;;;4971906;28;20322;-70
2023/09/15 09:09:32;;;;;;;12.63;4.85;;;17.50;99.90;;;;;;4954925;28;20220;-70
2023/09/15 09:11:58;;;;;;;17.98;5.22;;;17.60;99.90;;;;;;4971263;28;20186;-70
2023/09/15 09:14:24;;;;;;;16.08;4.85;;;17.60;99.90;;;;;;4949351;28;20187;-73
2023/09/15 09:16:52;;;;;;;9.43;4.53;;;17.70;99.90;;;;;;4969028;28;20634;-70
2023/09/15 09:19:18;;;;;;;15.70;4.50;;;17.70;99.90;;;;;;4934445;29;20193;-69
2023/09/15 09:21:44;;;;;;;10.93;4.38;;;17.80;99.90;;;;;;4969436;28;20261;-70
2023/09/15 09:24:11;;;;;;;14.80;4.60;;;17.90;99.90;;;;;;4971603;28;20194;-69
2023/09/15 09:26:38;;;;;;;6.57;3.70;;;17.90;99.90;;;;;;4971509;28;20194;-73
2023/09/15 09:29:04;;;;;;;14.15;5.05;;;18.00;99.90;;;;;;4968570;28;20246;-70
2023/09/15 09:31:30;;;;;;;8.55;3.88;;;18.10;99.90;;;;;;4969888;28;20186;-69
2023/09/15 09:33:58;;;;;;;12.93;3.90;;;18.10;99.90;;;;;;4971552;28;20192;-72
2023/09/15 09:36:24;;;;;;;7.13;3.10;;;18.20;99.90;;;;;;4971171;28;20245;-70
2023/09/15 09:38:52;;;;;;;12.23;3.42;;;18.20;99.90;;;;;;4951578;28;20532;-70
2023/09/15 09:41:20;;;;;;;12.13;3.70;;;18.20;99.90;;;;;;4968376;28;20265;-68
2023/09/15 09:43:46;;;;;;;6.65;3.42;;;18.30;99.90;;;;;;4975597;28;20665;-70
2023/09/15 09:46:18;;;;;;;10.30;3.70;;;18.30;99.90;;;;;;4977232;28;20253;-68
2023/09/15 09:48:44;;;;;;;10.65;4.53;;;18.40;99.90;;;;;;4940664;28;20224;-74
2023/09/15 09:51:13;;;;;;;15.43;5.50;;;18.50;99.90;;;;;;4969051;28;20233;-70
2023/09/15 09:53:40;;;;;;;8.93;3.80;;;18.60;99.90;;;;;;4974086;28;20182;-70
2023/09/15 09:56:07;;;;;;;14.75;4.25;;;18.60;99.90;;;;;;4975064;28;20367;-71
2023/09/15 09:58:36;;;;;;;9.88;4.20;;;18.60;99.90;;;;;;4956503;28;20198;-69
2023/09/15 10:01:06;;;;;;;10.68;4.35;;;18.70;99.90;;;;;;4970505;28;20189;-71
2023/09/15 10:03:33;;;;;;;12.40;4.25;;;18.80;99.90;;;;;;4973495;28;20182;-72
2023/09/15 10:05:59;;;;;;;12.57;4.90;;;18.80;99.90;;;;;;4974490;28;20256;-69
2023/09/15 10:08:26;;;;;;;12.02;5.35;;;18.90;99.90;;;;;;4957020;28;20972;-71
2023/09/15 10:10:53;;;;;;;12.02;5.00;;;19.00;99.90;;;;;;4973893;28;20617;-71
2023/09/15 10:13:19;;;;;;;12.48;5.00;;;19.00;99.90;;;;;;4974498;28;20264;-70
2023/09/15 10:15:47;;;;;;;13.70;5.05;;;19.00;99.90;;;;;;4974612;28;20205;-69
2023/09/15 10:18:16;;;;;;;13.63;5.25;;;19.10;99.90;;;;;;4973698;28;20182;-69
2023/09/15 10:20:44;;;;;;;12.80;6.28;;;19.10;99.90;;;;;;4972734;28;20220;-75
2023/09/15 10:23:13;;;;;;;12.48;5.68;;;19.20;99.90;;;;;;4969468;28;20186;-69
2023/09/15 10:25:46;;;;;;;12.25;5.82;;;19.20;99.90;;;;;;4974779;28;20190;-71
2023/09/15 10:28:14;;;;;;;11.88;5.55;;;19.30;99.90;;;;;;4974119;28;20209;-68
2023/09/15 10:30:41;;;;;;;14.57;6.90;;;19.30;99.90;;;;;;4974670;28;20266;-70
2023/09/15 10:33:08;;;;;;;13.82;7.97;;;19.30;99.90;;;;;;4969677;28;20618;-70
2023/09/15 10:35:34;;;;;;;13.98;7.90;;;19.40;99.90;;;;;;4974258;28;20182;-70
2023/09/15 10:38:03;;;;;;;13.55;6.30;;;19.40;99.90;;;;;;4973718;28;20182;-70
2023/09/15 10:40:46;;;;;;;12.10;5.45;;;19.50;99.90;;;;;;4957217;28;20551;-69
2023/09/15 10:43:13;;;;;;;11.63;6.18;;;19.50;99.90;;;;;;4971362;28;20186;-69
2023/09/15 10:45:39;;;;;;;11.90;5.30;;;19.60;99.90;;;;;;4955081;28;20273;-70
2023/09/15 10:48:05;;;;;;;9.82;4.57;;;19.60;99.90;;;;;;4972820;28;20296;-71
2023/09/15 10:50:39;;;;;;;9.93;4.00;;;19.60;99.90;;;;;;4973341;28;20240;-71
2023/09/15 10:53:08;;;;;;;10.82;4.03;;;19.70;99.90;;;;;;4955178;28;20220;-70
2023/09/15 10:55:35;;;;;;;11.50;3.85;;;19.70;99.90;;;;;;4967102;28;20178;-69
2023/09/15 10:58:02;;;;;;;14.15;3.60;;;19.80;99.90;;;;;;4972837;28;20182;-69
2023/09/15 11:00:33;;;;;;;8.75;3.45;;;19.80;99.90;;;;;;4973112;28;20214;-70
2023/09/15 11:03:01;;;;;;;8.18;4.45;;;19.90;99.90;;;;;;4974116;28;20241;-69
2023/09/15 11:05:27;;;;;;;6.95;3.30;;;19.90;99.90;;;;;;4973724;28;20190;-70
2023/09/15 11:07:57;;;;;;;10.10;4.22;;;20.00;99.90;;;;;;4973589;28;20696;-68
2023/09/15 11:10:28;;;;;;;7.07;3.35;;;20.00;99.90;;;;;;4972207;28;20638;-68
2023/09/15 11:12:58;;;;;;;7.32;3.50;;;20.00;99.90;;;;;;4967791;28;20228;-70
2023/09/15 11:15:25;;;;;;;7.78;3.30;;;20.10;99.90;;;;;;4972776;28;20178;-70
2023/09/15 11:17:51;;;;;;;8.13;3.40;;;20.10;99.90;;;;;;4972282;28;20563;-73
2023/09/15 11:20:17;;;;;;;12.32;3.22;;;20.10;99.90;;;;;;4973284;28;20193;-70
2023/09/15 11:22:44;;;;;;;6.78;3.40;;;20.10;99.90;;;;;;4969792;28;20264;-72
2023/09/15 11:25:10;;;;;;;11.52;3.47;;;20.20;99.90;;;;;;4972751;28;20210;-69
2023/09/15 11:27:36;;;;;;;9.15;3.17;;;20.20;99.90;;;;;;4973164;28;20197;-74
2023/09/15 11:30:05;;;;;;;9.13;3.30;;;20.20;99.90;;;;;;4960643;28;20225;-69
2023/09/15 11:32:35;;;;;;;13.65;6.70;;;20.20;99.90;;;;;;4970554;28;20194;-69
2023/09/15 11:35:04;;;;;;;9.70;3.50;;;20.30;99.90;;;;;;4970893;28;20654;-69
2023/09/15 11:37:31;;;;;;;8.50;3.38;;;20.30;99.90;;;;;;4973207;28;20324;-71
2023/09/15 11:39:58;;;;;;;7.57;3.33;;;20.30;99.90;;;;;;4973232;28;20209;-70
2023/09/15 11:42:24;;;;;;;6.22;3.28;;;20.40;99.90;;;;;;4953778;28;20182;-70
2023/09/15 11:44:50;;;;;;;8.93;3.88;;;20.40;99.90;;;;;;4968081;28;20190;-69
2023/09/15 11:47:17;;;;;;;9.50;3.30;;;20.50;99.90;;;;;;4970392;28;20240;-69
2023/09/15 11:49:43;;;;;;;7.72;4.00;;;20.50;99.90;;;;;;4970239;28;20217;-70
2023/09/15 11:52:11;;;;;;;9.13;3.58;;;20.50;99.90;;;;;;4971760;28;20249;-69
2023/09/15 11:54:37;;;;;;;8.20;3.60;;;20.60;99.90;;;;;;4971896;28;20710;-69
2023/09/15 11:57:04;;;;;;;6.90;3.40;;;20.60;99.90;;;;;;4970257;28;20262;-63
2023/09/15 11:59:30;;;;;;;7.43;3.80;;;20.70;99.90;;;;;;4967541;28;20190;-68
2023/09/15 12:01:59;;;;;;;8.57;3.30;;;20.70;99.90;;;;;;4952193;28;20349;-67
2023/09/15 12:04:27;;;;;;;9.00;3.55;;;20.80;99.90;;;;;;4972172;28;20240;-66
2023/09/15 12:06:54;;;;;;;10.35;3.65;;;20.80;99.90;;;;;;4955149;28;20213;-66
2023/09/15 12:09:20;;;;;;;14.63;3.55;;;20.80;99.90;;;;;;4967299;28;20281;-66
2023/09/15 12:11:47;;;;;;;9.45;4.07;;;20.80;99.90;;;;;;4968785;28;20275;-70
2023/09/15 12:14:14;;;;;;;13.00;3.83;;;20.80;99.90;;;;;;4972226;28;20189;-63
2023/09/15 12:16:44;;;;;;;11.18;3.30;;;20.90;99.90;;;;;;4971752;28;20189;-66
2023/09/15 12:19:11;;;;;;;6.38;3.13;;;20.90;99.90;;;;;;4967185;28;20184;-65
2023/09/15 12:21:37;;;;;;;9.63;3.50;;;21.00;99.90;;;;;;4971273;28;20186;-67
2023/09/15 12:24:10;;;;;;;10.05;3.58;;;21.00;99.90;;;;;;4967736;28;20186;-65
2023/09/15 12:26:42;;;;;;;9.13;3.50;;;21.10;99.90;;;;;;4954783;28;20273;-68
2023/09/15 12:29:08;;;;;;;8.25;3.53;;;21.10;99.90;;;;;;4966130;28;20693;-66
2023/09/15 12:31:41;;;;;;;8.35;3.63;;;21.20;99.90;;;;;;4969579;28;20280;-66
2023/09/15 12:34:08;;;;;;;12.65;3.88;;;21.30;99.80;;;;;;4971632;28;20197;-65
2023/09/15 12:36:34;;;;;;;8.77;3.97;;;21.30;99.60;;;;;;4971486;28;20274;-68
2023/09/15 12:39:00;;;;;;;6.97;3.60;;;21.40;99.60;;;;;;4966828;28;20201;-62